Time;durP1;ratioP1;P1;durP2;ratioP2;P2;SDS_P1;SDS_P2;PMS_P1;PMS_P2;Temp;Humidity;BMP_temperature;BMP_pressure;BME280_temperature;BME280_humidity;BME280_pressure;Samples;Min_cycle;Max_cycle;Signal;HPM_P1;HPM_P2
2023/10/22 00:04:06;;;;;;;21.98;12.68;;;;;;;;;;10491156;28;20674;-82
2023/10/22 00:09:07;;;;;;;21.17;11.73;;;;;;;;;;10489279;28;20036;-82
2023/10/22 00:14:08;;;;;;;20.42;11.80;;;;;;;;;;10488581;28;20495;-82
2023/10/22 00:19:09;;;;;;;24.75;13.02;;;;;;;;;;10489620;28;20036;-82
2023/10/22 00:24:10;;;;;;;20.10;13.05;;;;;;;;;;10489737;28;20029;-82
2023/10/22 00:29:11;;;;;;;23.50;12.80;;;;;;;;;;10488196;28;20499;-82
2023/10/22 00:34:12;;;;;;;17.65;10.82;;;;;;;;;;10489449;28;20032;-82
2023/10/22 00:39:13;;;;;;;26.75;13.98;;;;;;;;;;10487233;28;20028;-83
2023/10/22 00:44:14;;;;;;;22.77;12.25;;;;;;;;;;10488612;28;20648;-82
2023/10/22 00:49:17;;;;;;;33.85;15.70;;;;;;;;;;10487480;28;20404;-82
2023/10/22 00:54:19;;;;;;;25.58;15.80;;;;;;;;;;10487332;28;20471;-82
2023/10/22 00:59:21;;;;;;;37.90;19.48;;;;;;;;;;10487704;28;20075;-82
2023/10/22 01:04:23;;;;;;;39.22;21.80;;;;;;;;;;10488536;28;20039;-82
2023/10/22 01:09:24;;;;;;;31.38;17.83;;;;;;;;;;10488061;28;20475;-82
2023/10/22 01:14:25;;;;;;;34.15;19.48;;;;;;;;;;10484053;28;20057;-82
2023/10/22 01:19:27;;;;;;;28.95;15.63;;;;;;;;;;10487650;28;20071;-82
2023/10/22 01:24:31;;;;;;;38.42;19.90;;;;;;;;;;10483795;28;20377;-81
2023/10/22 01:29:32;;;;;;;31.48;17.27;;;;;;;;;;10486603;28;20083;-82
2023/10/22 01:34:33;;;;;;;19.38;12.40;;;;;;;;;;10485792;28;20029;-82
2023/10/22 01:39:34;;;;;;;21.77;11.80;;;;;;;;;;10485941;28;20469;-82
2023/10/22 01:44:36;;;;;;;13.00;8.60;;;;;;;;;;10485228;28;20047;-82
2023/10/22 01:49:43;;;;;;;18.15;9.82;;;;;;;;;;10479135;28;20037;-82
2023/10/22 01:54:44;;;;;;;14.95;7.22;;;;;;;;;;10486159;28;20109;-82
2023/10/22 01:59:45;;;;;;;18.55;9.65;;;;;;;;;;10484666;28;20097;-82
2023/10/22 02:04:46;;;;;;;12.35;7.30;;;;;;;;;;10484694;28;20045;-82
2023/10/22 02:09:47;;;;;;;22.75;8.45;;;;;;;;;;10484941;28;20040;-82
2023/10/22 02:14:48;;;;;;;18.60;8.35;;;;;;;;;;10484443;28;20063;-82
2023/10/22 02:19:49;;;;;;;16.00;6.72;;;;;;;;;;10486370;28;20706;-82
2023/10/22 02:24:50;;;;;;;16.70;7.10;;;;;;;;;;10484624;28;20033;-82
2023/10/22 02:29:51;;;;;;;12.35;6.13;;;;;;;;;;10484680;28;20048;-82
2023/10/22 02:34:52;;;;;;;11.88;5.88;;;;;;;;;;10485033;28;20327;-82
2023/10/22 02:39:53;;;;;;;9.00;6.28;;;;;;;;;;10484975;28;20043;-82
2023/10/22 02:44:54;;;;;;;23.80;8.57;;;;;;;;;;10484371;28;20703;-83
2023/10/22 02:49:55;;;;;;;12.40;7.63;;;;;;;;;;10483704;28;20532;-82
2023/10/22 02:54:56;;;;;;;14.38;8.02;;;;;;;;;;10483576;28;20089;-82
2023/10/22 02:59:57;;;;;;;17.02;8.00;;;;;;;;;;10484588;28;20032;-82
2023/10/22 03:04:58;;;;;;;29.48;10.50;;;;;;;;;;10484224;28;20611;-82
2023/10/22 03:10:00;;;;;;;20.02;11.30;;;;;;;;;;10485213;28;20044;-81
2023/10/22 03:15:01;;;;;;;19.52;11.07;;;;;;;;;;10490422;28;20139;-82
2023/10/22 03:20:03;;;;;;;18.48;9.60;;;;;;;;;;10492981;28;20024;-82
2023/10/22 03:25:07;;;;;;;25.20;11.93;;;;;;;;;;10492646;28;20408;-82
2023/10/22 03:30:10;;;;;;;26.67;12.40;;;;;;;;;;10491362;28;20036;-83
2023/10/22 03:35:11;;;;;;;25.38;13.40;;;;;;;;;;10492102;28;20033;-82
2023/10/22 03:40:12;;;;;;;31.05;12.80;;;;;;;;;;10491602;28;20036;-82
2023/10/22 03:45:13;;;;;;;25.88;10.90;;;;;;;;;;10491347;28;20036;-82
2023/10/22 03:50:14;;;;;;;36.60;12.63;;;;;;;;;;10490660;28;20028;-82
2023/10/22 03:55:15;;;;;;;21.10;12.18;;;;;;;;;;10490690;28;20044;-82
2023/10/22 04:00:20;;;;;;;25.63;13.77;;;;;;;;;;10490873;28;20074;-82
2023/10/22 04:05:21;;;;;;;16.58;8.45;;;;;;;;;;10489916;28;20731;-83
2023/10/22 04:10:22;;;;;;;16.48;9.07;;;;;;;;;;10489935;28;20036;-83
2023/10/22 04:15:29;;;;;;;22.15;10.88;;;;;;;;;;10482183;28;20056;-84
2023/10/22 04:20:33;;;;;;;20.20;11.20;;;;;;;;;;10479477;28;20163;-83
2023/10/22 04:25:40;;;;;;;29.13;14.20;;;;;;;;;;10488925;28;20040;-83
2023/10/22 04:30:43;;;;;;;18.27;9.63;;;;;;;;;;10486364;28;20051;-82
2023/10/22 04:35:44;;;;;;;23.30;10.90;;;;;;;;;;10488206;28;20488;-82
2023/10/22 04:40:45;;;;;;;21.98;11.15;;;;;;;;;;10488977;28;20024;-82
2023/10/22 04:45:50;;;;;;;56.60;19.73;;;;;;;;;;10490047;28;20024;-82
2023/10/22 04:50:52;;;;;;;18.07;9.83;;;;;;;;;;10489524;28;20507;-82
2023/10/22 04:55:56;;;;;;;13.23;8.18;;;;;;;;;;10489381;28;20085;-82
2023/10/22 05:00:58;;;;;;;34.40;13.70;;;;;;;;;;10489458;28;20469;-83
2023/10/22 05:06:04;;;;;;;51.28;19.42;;;;;;;;;;10470544;28;20033;-82
2023/10/22 05:11:05;;;;;;;61.72;24.80;;;;;;;;;;10489012;28;20153;-83
2023/10/22 05:16:07;;;;;;;51.95;22.80;;;;;;;;;;10486876;28;20543;-82
2023/10/22 05:21:09;;;;;;;41.30;17.70;;;;;;;;;;10487897;28;20097;-82
2023/10/22 05:26:11;;;;;;;36.78;15.05;;;;;;;;;;10487227;28;20053;-83
2023/10/22 05:31:17;;;;;;;51.30;22.20;;;;;;;;;;10487825;28;20045;-83
2023/10/22 05:36:19;;;;;;;66.55;26.08;;;;;;;;;;10487045;28;20037;-82
2023/10/22 05:41:25;;;;;;;71.78;25.75;;;;;;;;;;10487109;28;20021;-82
2023/10/22 05:46:27;;;;;;;81.30;24.75;;;;;;;;;;10486951;28;20033;-82
2023/10/22 05:51:28;;;;;;;107.47;34.20;;;;;;;;;;10485404;28;20040;-81
2023/10/22 05:56:29;;;;;;;100.78;34.03;;;;;;;;;;10486234;28;20036;-83
2023/10/22 06:01:30;;;;;;;90.55;32.85;;;;;;;;;;10485791;28;20143;-81
2023/10/22 06:06:31;;;;;;;67.38;27.25;;;;;;;;;;10485274;28;20094;-83
2023/10/22 06:11:32;;;;;;;57.83;23.60;;;;;;;;;;10484767;28;20028;-81
2023/10/22 06:16:33;;;;;;;57.08;21.80;;;;;;;;;;10485078;28;20453;-81
2023/10/22 06:21:34;;;;;;;38.13;18.70;;;;;;;;;;10484767;28;20028;-86
2023/10/22 06:26:35;;;;;;;45.50;18.70;;;;;;;;;;10485646;28;20023;-86
2023/10/22 06:31:36;;;;;;;50.08;23.00;;;;;;;;;;10484094;28;20531;-87
2023/10/22 06:36:37;;;;;;;64.30;34.92;;;;;;;;;;10483645;28;20041;-85
2023/10/22 06:41:38;;;;;;;47.05;29.98;;;;;;;;;;10484708;28;20028;-86
2023/10/22 06:46:39;;;;;;;132.98;68.32;;;;;;;;;;10483823;28;20040;-86
2023/10/22 06:51:40;;;;;;;66.43;30.48;;;;;;;;;;10478676;28;20044;-85
2023/10/22 06:56:41;;;;;;;36.13;19.77;;;;;;;;;;10467368;28;20123;-82
2023/10/22 07:01:42;;;;;;;53.15;24.95;;;;;;;;;;10483148;28;20796;-88
2023/10/22 07:06:43;;;;;;;84.95;33.08;;;;;;;;;;10483032;28;20093;-88
2023/10/22 07:11:46;;;;;;;68.72;29.48;;;;;;;;;;10480838;28;20124;-84
2023/10/22 07:16:47;;;;;;;76.13;36.88;;;;;;;;;;10478371;28;20534;-89
2023/10/22 07:21:48;;;;;;;49.95;24.85;;;;;;;;;;10482355;28;20056;-88
2023/10/22 07:26:49;;;;;;;51.88;22.80;;;;;;;;;;10475404;28;20094;-86
2023/10/22 07:31:51;;;;;;;33.58;17.90;;;;;;;;;;10484539;28;20090;-89
2023/10/22 07:36:52;;;;;;;40.42;20.23;;;;;;;;;;10478250;28;20040;-86
2023/10/22 07:41:54;;;;;;;23.60;13.63;;;;;;;;;;10475678;28;20582;-87
2023/10/22 07:47:07;;;;;;;20.92;12.45;;;;;;;;;;10479630;28;20082;-85
2023/10/22 07:52:09;;;;;;;39.88;19.80;;;;;;;;;;10484442;28;20050;-87
2023/10/22 07:57:10;;;;;;;49.78;22.17;;;;;;;;;;10484258;28;20028;-85
2023/10/22 08:02:11;;;;;;;38.83;19.52;;;;;;;;;;10474082;28;20033;-86
2023/10/22 08:07:12;;;;;;;20.15;11.68;;;;;;;;;;10492217;28;20036;-85
2023/10/22 08:12:13;;;;;;;38.00;18.20;;;;;;;;;;10491769;28;20036;-85
2023/10/22 08:17:21;;;;;;;40.60;20.67;;;;;;;;;;10489110;28;20577;-85
2023/10/22 08:22:22;;;;;;;27.52;18.20;;;;;;;;;;10469485;28;20044;-86
2023/10/22 08:27:23;;;;;;;36.40;20.60;;;;;;;;;;10481689;28;20098;-84
2023/10/22 08:32:24;;;;;;;31.02;19.05;;;;;;;;;;10487953;28;20049;-86
2023/10/22 08:37:31;;;;;;;38.45;23.90;;;;;;;;;;10471076;28;20384;-84
2023/10/22 08:42:33;;;;;;;28.58;17.00;;;;;;;;;;10481664;28;20044;-86
2023/10/22 08:47:37;;;;;;;151.68;110.80;;;;;;;;;;10488436;28;20025;-85
2023/10/22 08:52:39;;;;;;;71.65;44.15;;;;;;;;;;10486613;28;20086;-85
2023/10/22 08:57:41;;;;;;;40.35;23.95;;;;;;;;;;10471024;28;20502;-85
2023/10/22 09:02:43;;;;;;;47.30;25.88;;;;;;;;;;10474137;28;20029;-87
2023/10/22 09:07:52;;;;;;;37.40;20.98;;;;;;;;;;10485780;28;20151;-84
2023/10/22 09:12:53;;;;;;;36.33;20.40;;;;;;;;;;10484477;28;20033;-85
2023/10/22 09:18:03;;;;;;;33.65;20.25;;;;;;;;;;10480341;28;20447;-85
2023/10/22 09:23:14;;;;;;;23.45;14.35;;;;;;;;;;10472037;28;20115;-88
2023/10/22 09:28:22;;;;;;;26.05;14.88;;;;;;;;;;10482321;28;20116;-89
2023/10/22 09:33:39;;;;;;;27.63;17.50;;;;;;;;;;10462425;28;20090;-86
2023/10/22 09:38:50;;;;;;;34.97;21.48;;;;;;;;;;10484709;28;20069;-85
2023/10/22 09:43:51;;;;;;;37.47;21.60;;;;;;;;;;10485385;28;20472;-85
2023/10/22 09:48:54;;;;;;;50.05;26.00;;;;;;;;;;10485214;28;20032;-84
2023/10/22 09:53:56;;;;;;;40.08;21.45;;;;;;;;;;10486413;28;20468;-85
2023/10/22 09:59:01;;;;;;;61.58;24.90;;;;;;;;;;10473923;28;20020;-84
2023/10/22 10:04:03;;;;;;;44.83;25.30;;;;;;;;;;10487020;28;20028;-84
2023/10/22 10:09:04;;;;;;;45.72;25.23;;;;;;;;;;10486349;28;20540;-86
2023/10/22 10:14:12;;;;;;;44.33;24.77;;;;;;;;;;10480783;28;20034;-84
2023/10/22 10:19:21;;;;;;;46.65;25.73;;;;;;;;;;10484122;28;20044;-84
2023/10/22 10:24:25;;;;;;;44.75;24.85;;;;;;;;;;10484216;28;20025;-85
2023/10/22 10:29:29;;;;;;;35.97;21.07;;;;;;;;;;10483227;28;20527;-85
2023/10/22 10:34:31;;;;;;;27.65;16.63;;;;;;;;;;10481269;28;20063;-85
2023/10/22 10:39:35;;;;;;;44.63;27.20;;;;;;;;;;10466008;28;20033;-84
2023/10/22 10:44:55;;;;;;;43.67;27.65;;;;;;;;;;10481581;28;20029;-85
2023/10/22 10:50:02;;;;;;;43.60;26.95;;;;;;;;;;10483639;28;20426;-86
2023/10/22 10:55:09;;;;;;;37.90;23.90;;;;;;;;;;10484596;28;20039;-85
2023/10/22 11:00:13;;;;;;;48.45;29.17;;;;;;;;;;10483092;28;20020;-86
2023/10/22 11:05:14;;;;;;;38.45;26.02;;;;;;;;;;10481612;28;20055;-87
2023/10/22 11:10:16;;;;;;;34.90;24.05;;;;;;;;;;10469997;28;20679;-83
2023/10/22 11:15:17;;;;;;;31.70;20.02;;;;;;;;;;10475094;28;20063;-87
2023/10/22 11:20:18;;;;;;;23.50;16.23;;;;;;;;;;10483934;28;20108;-87
2023/10/22 11:25:23;;;;;;;13.98;10.60;;;;;;;;;;10481943;28;20878;-86
2023/10/22 11:30:37;;;;;;;13.07;9.85;;;;;;;;;;10483072;28;20460;-88
2023/10/22 11:35:38;;;;;;;13.77;9.45;;;;;;;;;;10469601;28;20071;-86
2023/10/22 11:40:39;;;;;;;18.67;12.63;;;;;;;;;;10489522;28;20123;-86
2023/10/22 11:45:51;;;;;;;17.20;10.65;;;;;;;;;;10494379;28;20099;-84
2023/10/22 11:50:56;;;;;;;15.82;10.73;;;;;;;;;;10463682;28;20045;-87
2023/10/22 11:55:57;;;;;;;14.57;10.50;;;;;;;;;;10485182;28;20036;-87
2023/10/22 12:00:58;;;;;;;11.30;8.98;;;;;;;;;;10488772;28;20028;-84
2023/10/22 12:05:59;;;;;;;17.92;11.80;;;;;;;;;;10496138;28;20555;-87
2023/10/22 12:11:00;;;;;;;21.80;14.70;;;;;;;;;;10491402;28;20438;-85
2023/10/22 12:16:02;;;;;;;26.52;16.52;;;;;;;;;;10487363;28;20048;-85
2023/10/22 12:21:03;;;;;;;28.73;19.17;;;;;;;;;;10476352;28;20032;-82
2023/10/22 12:26:09;;;;;;;30.52;19.52;;;;;;;;;;10490842;28;20050;-86
2023/10/22 12:31:10;;;;;;;22.13;13.15;;;;;;;;;;10489990;28;20051;-85
2023/10/22 12:36:11;;;;;;;11.02;6.47;;;;;;;;;;10471245;28;20495;-84
2023/10/22 12:41:12;;;;;;;11.60;7.57;;;;;;;;;;10488421;28;20034;-84
2023/10/22 12:46:13;;;;;;;10.88;7.00;;;;;;;;;;10463166;28;20035;-85
2023/10/22 12:51:14;;;;;;;9.68;6.40;;;;;;;;;;10482557;28;20046;-85
2023/10/22 12:56:17;;;;;;;10.02;5.93;;;;;;;;;;10487583;28;20439;-84
2023/10/22 13:01:19;;;;;;;10.90;6.60;;;;;;;;;;10486800;28;20036;-85
2023/10/22 13:06:20;;;;;;;8.82;5.60;;;;;;;;;;10487639;28;20064;-84
2023/10/22 13:11:21;;;;;;;9.25;5.55;;;;;;;;;;10487826;28;20044;-85
2023/10/22 13:16:22;;;;;;;8.63;5.28;;;;;;;;;;10486842;28;20052;-84
2023/10/22 13:21:23;;;;;;;8.23;4.75;;;;;;;;;;10481347;28;20448;-84
2023/10/22 13:26:24;;;;;;;7.15;5.15;;;;;;;;;;10486253;28;20036;-83
2023/10/22 13:31:25;;;;;;;10.10;5.88;;;;;;;;;;10487097;28;20036;-83
2023/10/22 13:36:34;;;;;;;16.05;8.75;;;;;;;;;;10485768;28;20047;-84
2023/10/22 13:41:35;;;;;;;12.32;7.30;;;;;;;;;;10485396;28;20400;-84
2023/10/22 13:46:42;;;;;;;15.80;8.65;;;;;;;;;;10478416;28;20028;-84
2023/10/22 13:51:43;;;;;;;7.20;4.93;;;;;;;;;;10483592;28;20079;-81
2023/10/22 13:56:44;;;;;;;9.88;5.10;;;;;;;;;;10485472;28;20036;-85
2023/10/22 14:01:45;;;;;;;18.00;9.95;;;;;;;;;;10484866;28;20040;-84
2023/10/22 14:06:46;;;;;;;6.53;4.20;;;;;;;;;;10467855;28;20039;-85
2023/10/22 14:11:49;;;;;;;21.45;11.90;;;;;;;;;;10485684;28;20044;-86
2023/10/22 14:16:57;;;;;;;16.48;8.27;;;;;;;;;;10466401;28;20081;-83
2023/10/22 14:21:58;;;;;;;15.40;9.02;;;;;;;;;;10477379;28;20482;-87
2023/10/22 14:27:06;;;;;;;16.67;8.30;;;;;;;;;;10480302;28;20085;-84
2023/10/22 14:32:07;;;;;;;14.82;8.27;;;;;;;;;;10477662;28;20104;-84
2023/10/22 14:37:08;;;;;;;12.85;7.75;;;;;;;;;;10485435;28;20036;-84
2023/10/22 14:42:09;;;;;;;10.57;5.70;;;;;;;;;;10485609;28;20731;-83
2023/10/22 14:47:10;;;;;;;10.30;6.43;;;;;;;;;;10484959;28;20028;-85
2023/10/22 14:52:11;;;;;;;28.17;13.60;;;;;;;;;;10485803;28;20115;-84
2023/10/22 14:57:12;;;;;;;21.23;10.80;;;;;;;;;;10483657;28;20415;-84
2023/10/22 15:02:20;;;;;;;15.30;8.40;;;;;;;;;;10483914;28;20119;-85
2023/10/22 15:07:21;;;;;;;9.63;5.97;;;;;;;;;;10483618;28;20045;-84
2023/10/22 15:12:22;;;;;;;13.05;7.25;;;;;;;;;;10485033;28;20607;-85
2023/10/22 15:17:23;;;;;;;8.57;5.45;;;;;;;;;;10481777;28;20044;-83
2023/10/22 15:22:24;;;;;;;15.00;9.05;;;;;;;;;;10484477;28;20462;-83
2023/10/22 15:27:25;;;;;;;42.05;22.15;;;;;;;;;;10484892;28;20032;-83
2023/10/22 15:32:26;;;;;;;19.77;11.20;;;;;;;;;;10484019;28;20065;-82
2023/10/22 15:37:27;;;;;;;19.90;11.55;;;;;;;;;;10484474;28;20624;-82
2023/10/22 15:42:28;;;;;;;11.13;5.93;;;;;;;;;;10483874;28;20028;-84
2023/10/22 15:47:29;;;;;;;10.68;7.22;;;;;;;;;;10483713;28;20033;-84
2023/10/22 15:52:30;;;;;;;16.20;8.55;;;;;;;;;;10483841;28;20443;-85
2023/10/22 15:57:31;;;;;;;15.15;7.57;;;;;;;;;;10483900;28;20026;-83
2023/10/22 16:02:32;;;;;;;15.40;7.55;;;;;;;;;;10484770;28;20029;-83
2023/10/22 16:07:34;;;;;;;13.77;8.27;;;;;;;;;;10482285;28;20029;-84
2023/10/22 16:12:35;;;;;;;14.70;7.68;;;;;;;;;;10483579;28;20103;-82
2023/10/22 16:17:40;;;;;;;19.33;9.93;;;;;;;;;;10484645;28;20075;-84
2023/10/22 16:22:41;;;;;;;17.58;7.18;;;;;;;;;;10490737;28;20030;-83
2023/10/22 16:27:42;;;;;;;12.50;6.63;;;;;;;;;;10489297;28;20036;-84
2023/10/22 16:32:43;;;;;;;12.10;6.13;;;;;;;;;;10490070;28;20054;-83
2023/10/22 16:37:44;;;;;;;13.43;6.25;;;;;;;;;;10490421;28;20280;-83
2023/10/22 16:42:46;;;;;;;14.48;6.18;;;;;;;;;;10488685;28;20040;-84
2023/10/22 16:47:47;;;;;;;22.05;9.15;;;;;;;;;;10489912;28;20028;-83
2023/10/22 16:52:48;;;;;;;24.33;11.45;;;;;;;;;;10488570;28;20036;-84
2023/10/22 16:57:49;;;;;;;26.83;13.45;;;;;;;;;;10489155;28;20033;-86
2023/10/22 17:02:53;;;;;;;24.70;13.32;;;;;;;;;;10489158;28;20040;-83
2023/10/22 17:07:54;;;;;;;20.23;8.63;;;;;;;;;;10489371;28;20469;-85
2023/10/22 17:12:55;;;;;;;22.67;10.45;;;;;;;;;;10488358;28;20496;-83
2023/10/22 17:17:56;;;;;;;23.90;9.73;;;;;;;;;;10487260;28;20561;-81
2023/10/22 17:22:57;;;;;;;19.52;8.30;;;;;;;;;;10489291;28;20151;-83
2023/10/22 17:27:58;;;;;;;23.88;10.00;;;;;;;;;;10488090;28;20041;-82
2023/10/22 17:32:59;;;;;;;23.73;10.95;;;;;;;;;;10488377;28;20076;-81
2023/10/22 17:38:00;;;;;;;32.13;12.75;;;;;;;;;;10476787;28;20032;-83
2023/10/22 17:43:01;;;;;;;61.53;25.48;;;;;;;;;;10475055;28;20025;-85
2023/10/22 17:48:02;;;;;;;48.47;18.88;;;;;;;;;;10487129;28;20366;-83
2023/10/22 17:53:03;;;;;;;55.60;19.20;;;;;;;;;;10485822;28;20033;-82
2023/10/22 17:58:05;;;;;;;55.88;23.67;;;;;;;;;;10486141;28;20024;-83
2023/10/22 18:03:06;;;;;;;38.03;17.45;;;;;;;;;;10486779;28;20027;-87
2023/10/22 18:08:07;;;;;;;32.83;13.35;;;;;;;;;;10486498;28;20390;-82
2023/10/22 18:13:08;;;;;;;32.17;14.10;;;;;;;;;;10486750;28;20047;-84
2023/10/22 18:18:15;;;;;;;22.55;10.38;;;;;;;;;;10484837;28;20060;-82
2023/10/22 18:23:16;;;;;;;29.80;12.60;;;;;;;;;;10485876;28;20020;-85
2023/10/22 18:28:17;;;;;;;29.30;13.40;;;;;;;;;;10485665;28;20032;-83
2023/10/22 18:33:22;;;;;;;23.75;11.20;;;;;;;;;;10485772;28;20041;-82
2023/10/22 18:38:23;;;;;;;23.55;11.32;;;;;;;;;;10482960;28;20086;-83
2023/10/22 18:43:27;;;;;;;20.83;10.70;;;;;;;;;;10498024;28;20286;-85
2023/10/22 18:48:31;;;;;;;22.05;12.77;;;;;;;;;;10484634;28;20039;-85
2023/10/22 18:53:33;;;;;;;25.70;13.68;;;;;;;;;;10484549;28;20064;-86
2023/10/22 18:58:34;;;;;;;21.95;12.60;;;;;;;;;;10484918;28;20016;-88
2023/10/22 19:03:35;;;;;;;23.70;13.25;;;;;;;;;;10483919;28;20032;-87
2023/10/22 19:08:36;;;;;;;23.67;12.07;;;;;;;;;;10484270;28;20128;-86
2023/10/22 19:13:37;;;;;;;31.20;15.95;;;;;;;;;;10474527;28;20071;-86
2023/10/22 19:18:38;;;;;;;25.15;13.40;;;;;;;;;;10482196;28;20053;-88
2023/10/22 19:23:39;;;;;;;19.55;10.93;;;;;;;;;;10465765;28;20443;-86
2023/10/22 19:28:40;;;;;;;20.73;11.55;;;;;;;;;;10455071;28;20067;-86
2023/10/22 19:33:42;;;;;;;20.30;10.27;;;;;;;;;;10483118;28;20055;-85
2023/10/22 19:38:43;;;;;;;20.55;11.73;;;;;;;;;;10481206;28;20373;-85
2023/10/22 19:43:44;;;;;;;33.60;16.48;;;;;;;;;;10474825;28;20029;-86
2023/10/22 19:48:51;;;;;;;38.08;19.50;;;;;;;;;;10478475;28;20032;-86
2023/10/22 19:53:53;;;;;;;30.83;17.27;;;;;;;;;;10482793;28;20036;-85
2023/10/22 19:58:56;;;;;;;36.38;16.10;;;;;;;;;;10471752;28;20080;-87
2023/10/22 20:03:57;;;;;;;34.72;15.20;;;;;;;;;;10474384;28;20075;-84
2023/10/22 20:09:06;;;;;;;28.67;12.90;;;;;;;;;;10485689;28;20441;-84
2023/10/22 20:14:07;;;;;;;21.77;12.48;;;;;;;;;;10490368;28;20100;-85
2023/10/22 20:19:10;;;;;;;21.40;12.05;;;;;;;;;;10489387;28;20705;-87
2023/10/22 20:24:11;;;;;;;23.17;12.63;;;;;;;;;;10470874;28;20033;-85
2023/10/22 20:29:19;;;;;;;25.58;13.35;;;;;;;;;;10489466;28;20577;-87
2023/10/22 20:34:20;;;;;;;22.45;12.27;;;;;;;;;;10487829;28;20439;-85
2023/10/22 20:39:21;;;;;;;23.13;11.35;;;;;;;;;;10489992;28;20571;-85
2023/10/22 20:44:24;;;;;;;24.05;11.90;;;;;;;;;;10490350;28;20065;-85
2023/10/22 20:49:25;;;;;;;27.98;13.88;;;;;;;;;;10488247;28;20098;-86
2023/10/22 20:54:26;;;;;;;25.50;13.50;;;;;;;;;;10486964;28;20036;-85
2023/10/22 20:59:27;;;;;;;22.08;13.00;;;;;;;;;;10489039;28;20075;-85
2023/10/22 21:04:37;;;;;;;29.10;13.13;;;;;;;;;;10486039;28;20037;-85
2023/10/22 21:09:38;;;;;;;26.95;13.57;;;;;;;;;;10488451;28;20036;-86
2023/10/22 21:14:39;;;;;;;30.45;16.00;;;;;;;;;;10487541;28;20041;-87
2023/10/22 21:19:40;;;;;;;28.52;14.90;;;;;;;;;;10446443;28;20056;-87
2023/10/22 21:24:41;;;;;;;61.53;25.02;;;;;;;;;;10445780;28;20139;-85
2023/10/22 21:29:42;;;;;;;29.25;15.65;;;;;;;;;;10453380;28;20492;-87
2023/10/22 21:34:43;;;;;;;57.50;25.45;;;;;;;;;;10444373;28;20059;-85
2023/10/22 21:39:44;;;;;;;76.32;31.63;;;;;;;;;;10445916;28;20025;-84
2023/10/22 21:44:48;;;;;;;115.57;45.28;;;;;;;;;;10446050;28;20132;-85
2023/10/22 21:49:49;;;;;;;134.00;55.63;;;;;;;;;;10443940;28;20048;-83
2023/10/22 21:54:50;;;;;;;88.72;37.95;;;;;;;;;;10441214;28;20037;-84
2023/10/22 21:59:51;;;;;;;103.63;38.08;;;;;;;;;;10445135;28;20106;-84
2023/10/22 22:04:52;;;;;;;82.77;32.53;;;;;;;;;;10443746;28;20582;-84
2023/10/22 22:09:53;;;;;;;28.40;15.40;;;;;;;;;;10443416;28;20068;-85
2023/10/22 22:14:54;;;;;;;55.03;27.42;;;;;;;;;;10444159;28;20037;-84
2023/10/22 22:19:55;;;;;;;73.95;28.48;;;;;;;;;;10477252;28;20423;-84
2023/10/22 22:24:56;;;;;;;111.97;40.45;;;;;;;;;;10485186;28;20028;-84
2023/10/22 22:29:57;;;;;;;132.68;47.70;;;;;;;;;;10486640;28;20032;-85
2023/10/22 22:34:58;;;;;;;286.87;74.43;;;;;;;;;;10484285;28;20047;-85
2023/10/22 22:39:59;;;;;;;293.60;74.13;;;;;;;;;;10465988;28;20041;-87
2023/10/22 22:45:00;;;;;;;52.83;30.35;;;;;;;;;;10485706;28;20037;-84
2023/10/22 22:50:01;;;;;;;78.23;39.90;;;;;;;;;;10484704;28;20048;-86
2023/10/22 22:55:03;;;;;;;83.53;42.43;;;;;;;;;;10483022;28;20037;-84
2023/10/22 23:00:06;;;;;;;64.33;37.13;;;;;;;;;;10484309;28;20017;-87
2023/10/22 23:05:08;;;;;;;162.30;63.53;;;;;;;;;;10484302;28;20028;-89
2023/10/22 23:10:09;;;;;;;53.75;30.63;;;;;;;;;;10484229;28;20032;-85
2023/10/22 23:15:10;;;;;;;45.03;25.77;;;;;;;;;;10482167;28;20039;-89
2023/10/22 23:20:11;;;;;;;53.05;33.78;;;;;;;;;;10439512;28;20103;-86
2023/10/22 23:25:12;;;;;;;50.25;29.85;;;;;;;;;;10412163;28;20025;-84
2023/10/22 23:30:13;;;;;;;77.75;31.60;;;;;;;;;;10439341;28;20037;-84
2023/10/22 23:35:14;;;;;;;53.23;27.10;;;;;;;;;;10447258;28;20033;-85
2023/10/22 23:40:15;;;;;;;125.85;40.72;;;;;;;;;;10422039;28;20033;-84
2023/10/22 23:45:18;;;;;;;72.53;34.23;;;;;;;;;;10448531;28;20029;-85
2023/10/22 23:50:19;;;;;;;56.70;33.53;;;;;;;;;;10433416;28;20033;-84
2023/10/22 23:55:20;;;;;;;100.33;42.43;;;;;;;;;;10414616;28;20025;-85
